DLH1123 EGKK-EDDF
Flight info
| Callsign | DLH1123 |
|---|---|
| Flight time | 0h 57m |
| Altitude | 39000 |
| Route | EGKK/26L MIMFO1M MIMFO Y312 DVR UL9 KONAN UL607 SPI T180 NIVNU/N0400F230 T847 IMCOM IMCOM2C EDDF/07L |
| Aircraft | A20N/M-VGD/A |
Departure
| Time | 2026-04-14 14:01 |
|---|---|
| Airport | London Gatwick Airport (EGKK) |
Arrival
| Time | 2026-04-14 14:59 |
|---|---|
| Airport | Frankfurt Main Airport (EDDF) |
| Time | Latitude | Longitude | Altitude | Speed | Heading |
|---|---|---|---|---|---|
| 2026-04-14 13:32 | 51.15473 | -0.17087 | 206 ft | 0 kts | 347° |
| 2026-04-14 13:53 | 51.15455 | -0.17081 | 217 ft | 3 kts | 347° |
| 2026-04-14 13:53 | 51.15437 | -0.17074 | 211 ft | 3 kts | 346° |
| 2026-04-14 13:53 | 51.15420 | -0.17060 | 218 ft | 3 kts | 305° |
| 2026-04-14 13:54 | 51.15414 | -0.17033 | 209 ft | 0 kts | 265° |
| 2026-04-14 13:55 | 51.15414 | -0.17034 | 210 ft | 0 kts | 265° |
| 2026-04-14 13:57 | 51.15411 | -0.17079 | 209 ft | 12 kts | 264° |
| 2026-04-14 13:57 | 51.15366 | -0.17237 | 211 ft | 9 kts | 219° |
| 2026-04-14 13:57 | 51.15312 | -0.17230 | 210 ft | 14 kts | 166° |
| 2026-04-14 13:57 | 51.15263 | -0.17167 | 215 ft | 12 kts | 99° |
| 2026-04-14 13:58 | 51.15274 | -0.17007 | 215 ft | 19 kts | 77° |
| 2026-04-14 13:58 | 51.15280 | -0.16849 | 210 ft | 0 kts | 123° |
| 2026-04-14 14:00 | 51.15235 | -0.16809 | 217 ft | 15 kts | 164° |
| 2026-04-14 14:00 | 51.15127 | -0.16823 | 215 ft | 15 kts | 234° |
| 2026-04-14 14:00 | 51.15088 | -0.17055 | 216 ft | 29 kts | 257° |
| 2026-04-14 14:00 | 51.15017 | -0.17565 | 210 ft | 79 kts | 256° |
| 2026-04-14 14:01 | 51.14843 | -0.18818 | 208 ft | 149 kts | 257° |
| 2026-04-14 14:01 | 51.14613 | -0.20571 | 665 ft | 163 kts | 253° |
| 2026-04-14 14:01 | 51.14424 | -0.22281 | 1630 ft | 151 kts | 253° |
| 2026-04-14 14:01 | 51.14193 | -0.23938 | 2402 ft | 168 kts | 249° |
| 2026-04-14 14:02 | 51.13875 | -0.25937 | 2865 ft | 201 kts | 251° |
| 2026-04-14 14:02 | 51.13736 | -0.28300 | 3500 ft | 225 kts | 271° |
| 2026-04-14 14:02 | 51.14316 | -0.30648 | 3902 ft | 236 kts | 303° |
| 2026-04-14 14:02 | 51.15638 | -0.32165 | 3993 ft | 245 kts | 339° |
| 2026-04-14 14:03 | 51.17338 | -0.32255 | 3998 ft | 249 kts | 16° |
| 2026-04-14 14:03 | 51.18788 | -0.30812 | 4000 ft | 247 kts | 53° |
| 2026-04-14 14:03 | 51.19536 | -0.28416 | 4002 ft | 241 kts | 78° |
| 2026-04-14 14:03 | 51.19914 | -0.25806 | 3995 ft | 240 kts | 83° |
| 2026-04-14 14:04 | 51.20227 | -0.23210 | 3994 ft | 241 kts | 84° |
| 2026-04-14 14:04 | 51.20542 | -0.20577 | 3990 ft | 241 kts | 83° |
| 2026-04-14 14:04 | 51.20874 | -0.17801 | 3990 ft | 264 kts | 83° |
| 2026-04-14 14:04 | 51.21226 | -0.14912 | 3998 ft | 272 kts | 82° |
| 2026-04-14 14:05 | 51.21601 | -0.11892 | 4457 ft | 281 kts | 82° |
| 2026-04-14 14:05 | 51.21985 | -0.08837 | 4885 ft | 279 kts | 82° |
| 2026-04-14 14:05 | 51.22368 | -0.05796 | 4991 ft | 280 kts | 82° |
| 2026-04-14 14:05 | 51.22747 | -0.02766 | 4992 ft | 281 kts | 82° |
| 2026-04-14 14:06 | 51.23130 | 0.00308 | 4991 ft | 281 kts | 82° |
| 2026-04-14 14:06 | 51.23514 | 0.03380 | 4999 ft | 282 kts | 82° |
| 2026-04-14 14:06 | 51.23895 | 0.06423 | 4995 ft | 282 kts | 82° |
| 2026-04-14 14:06 | 51.24276 | 0.09497 | 4998 ft | 282 kts | 81° |
| 2026-04-14 14:07 | 51.24659 | 0.12565 | 4995 ft | 282 kts | 81° |
| 2026-04-14 14:07 | 51.25041 | 0.15629 | 4992 ft | 281 kts | 82° |
| 2026-04-14 14:07 | 51.25378 | 0.18706 | 4985 ft | 280 kts | 87° |
| 2026-04-14 14:07 | 51.25357 | 0.21776 | 5288 ft | 280 kts | 98° |
| 2026-04-14 14:08 | 51.25148 | 0.24893 | 5661 ft | 281 kts | 100° |
| 2026-04-14 14:08 | 51.24907 | 0.28006 | 5835 ft | 282 kts | 100° |
| 2026-04-14 14:08 | 51.24663 | 0.31118 | 5907 ft | 282 kts | 100° |
| 2026-04-14 14:08 | 51.24425 | 0.34213 | 5959 ft | 284 kts | 100° |
| 2026-04-14 14:09 | 51.24185 | 0.37356 | 5951 ft | 285 kts | 100° |
| 2026-04-14 14:09 | 51.23942 | 0.40506 | 5842 ft | 284 kts | 99° |
| 2026-04-14 14:09 | 51.23704 | 0.43613 | 5836 ft | 284 kts | 99° |
| 2026-04-14 14:09 | 51.23465 | 0.46744 | 5834 ft | 283 kts | 100° |
| 2026-04-14 14:10 | 51.23225 | 0.49862 | 5838 ft | 283 kts | 99° |
| 2026-04-14 14:10 | 51.22986 | 0.52962 | 5563 ft | 279 kts | 100° |
| 2026-04-14 14:10 | 51.22743 | 0.56076 | 5365 ft | 298 kts | 100° |
| 2026-04-14 14:10 | 51.22471 | 0.59491 | 5842 ft | 322 kts | 100° |
| 2026-04-14 14:11 | 51.22188 | 0.63091 | 6969 ft | 324 kts | 99° |
| 2026-04-14 14:11 | 51.21917 | 0.66615 | 8547 ft | 314 kts | 99° |
| 2026-04-14 14:11 | 51.21656 | 0.70011 | 10101 ft | 303 kts | 99° |
| 2026-04-14 14:11 | 51.21397 | 0.73328 | 11091 ft | 311 kts | 99° |
| 2026-04-14 14:12 | 51.21115 | 0.76860 | 11554 ft | 337 kts | 99° |
| 2026-04-14 14:12 | 51.20799 | 0.80731 | 11982 ft | 361 kts | 99° |
| 2026-04-14 14:12 | 51.20472 | 0.84741 | 12800 ft | 373 kts | 98° |
| 2026-04-14 14:12 | 51.20140 | 0.88883 | 13668 ft | 381 kts | 98° |
| 2026-04-14 14:13 | 51.19801 | 0.93117 | 14542 ft | 387 kts | 98° |
| 2026-04-14 14:13 | 51.19454 | 0.97418 | 15369 ft | 392 kts | 98° |
| 2026-04-14 14:13 | 51.19100 | 1.01775 | 16211 ft | 397 kts | 97° |
| 2026-04-14 14:13 | 51.18740 | 1.06176 | 17036 ft | 402 kts | 97° |
| 2026-04-14 14:14 | 51.18381 | 1.10560 | 17827 ft | 407 kts | 97° |
| 2026-04-14 14:14 | 51.18009 | 1.15066 | 18614 ft | 412 kts | 97° |
| 2026-04-14 14:14 | 51.17630 | 1.19629 | 19263 ft | 417 kts | 97° |
| 2026-04-14 14:14 | 51.17248 | 1.24205 | 19870 ft | 423 kts | 96° |
| 2026-04-14 14:15 | 51.16855 | 1.28886 | 20471 ft | 429 kts | 96° |
| 2026-04-14 14:15 | 51.16457 | 1.33619 | 21074 ft | 434 kts | 96° |
| 2026-04-14 14:15 | 51.16101 | 1.38425 | 21669 ft | 439 kts | 94° |
| 2026-04-14 14:15 | 51.15829 | 1.43313 | 22256 ft | 444 kts | 92° |
| 2026-04-14 14:16 | 51.15600 | 1.48251 | 22840 ft | 448 kts | 91° |
| 2026-04-14 14:16 | 51.15384 | 1.53230 | 23425 ft | 453 kts | 91° |
| 2026-04-14 14:16 | 51.15239 | 1.56559 | 23787 ft | 456 kts | 91° |
| 2026-04-14 14:17 | 51.14776 | 1.66684 | 24760 ft | 463 kts | 91° |
| 2026-04-14 14:17 | 51.14528 | 1.71813 | 25247 ft | 466 kts | 91° |
| 2026-04-14 14:17 | 51.14271 | 1.76989 | 25716 ft | 470 kts | 91° |
| 2026-04-14 14:17 | 51.14006 | 1.82211 | 26177 ft | 473 kts | 91° |
| 2026-04-14 14:18 | 51.13739 | 1.87424 | 26616 ft | 476 kts | 91° |
| 2026-04-14 14:18 | 51.13465 | 1.92708 | 27049 ft | 480 kts | 91° |
| 2026-04-14 14:18 | 51.13191 | 1.97978 | 27461 ft | 483 kts | 91° |
| 2026-04-14 14:18 | 51.12909 | 2.03329 | 27869 ft | 486 kts | 90° |
| 2026-04-14 14:19 | 51.12622 | 2.08744 | 28269 ft | 490 kts | 90° |
| 2026-04-14 14:19 | 51.12334 | 2.14135 | 28649 ft | 493 kts | 90° |
| 2026-04-14 14:19 | 51.12040 | 2.19586 | 29027 ft | 496 kts | 90° |
| 2026-04-14 14:19 | 51.11740 | 2.25097 | 29393 ft | 500 kts | 90° |
| 2026-04-14 14:20 | 51.11436 | 2.30646 | 29795 ft | 502 kts | 90° |
| 2026-04-14 14:20 | 51.11132 | 2.36117 | 30309 ft | 501 kts | 90° |
| 2026-04-14 14:20 | 51.10822 | 2.41627 | 30781 ft | 499 kts | 90° |
| 2026-04-14 14:20 | 51.10509 | 2.47152 | 31283 ft | 497 kts | 90° |
| 2026-04-14 14:21 | 51.10196 | 2.52624 | 31781 ft | 495 kts | 89° |
| 2026-04-14 14:21 | 51.09886 | 2.58015 | 32247 ft | 493 kts | 89° |
| 2026-04-14 14:21 | 51.09505 | 2.63430 | 32696 ft | 495 kts | 94° |
| 2026-04-14 14:21 | 51.08755 | 2.68815 | 33142 ft | 497 kts | 98° |
| 2026-04-14 14:22 | 51.07877 | 2.74165 | 33595 ft | 496 kts | 99° |
| 2026-04-14 14:22 | 51.06955 | 2.79408 | 34029 ft | 495 kts | 100° |
| 2026-04-14 14:22 | 51.06001 | 2.84645 | 34413 ft | 494 kts | 101° |
| 2026-04-14 14:22 | 51.05026 | 2.89917 | 34714 ft | 495 kts | 101° |
| 2026-04-14 14:23 | 51.04063 | 2.95112 | 34980 ft | 495 kts | 101° |
| 2026-04-14 14:23 | 51.03089 | 3.00368 | 35279 ft | 495 kts | 101° |
| 2026-04-14 14:23 | 51.02119 | 3.05614 | 35569 ft | 495 kts | 101° |
| 2026-04-14 14:23 | 51.01142 | 3.10897 | 35853 ft | 495 kts | 102° |
| 2026-04-14 14:24 | 51.00181 | 3.16091 | 36130 ft | 495 kts | 102° |
| 2026-04-14 14:24 | 50.99206 | 3.21360 | 36408 ft | 495 kts | 102° |
| 2026-04-14 14:24 | 50.98230 | 3.26615 | 36688 ft | 495 kts | 102° |
| 2026-04-14 14:24 | 50.97256 | 3.31847 | 36964 ft | 494 kts | 102° |
| 2026-04-14 14:25 | 50.96288 | 3.37027 | 37237 ft | 494 kts | 102° |
| 2026-04-14 14:25 | 50.95311 | 3.42245 | 37511 ft | 494 kts | 102° |
| 2026-04-14 14:25 | 50.94331 | 3.47466 | 37792 ft | 493 kts | 103° |
| 2026-04-14 14:25 | 50.93349 | 3.52676 | 38067 ft | 492 kts | 103° |
| 2026-04-14 14:26 | 50.92366 | 3.57882 | 38343 ft | 492 kts | 103° |
| 2026-04-14 14:26 | 50.91387 | 3.63046 | 38599 ft | 491 kts | 103° |
| 2026-04-14 14:26 | 50.90396 | 3.68240 | 38853 ft | 491 kts | 103° |
| 2026-04-14 14:26 | 50.89398 | 3.73430 | 39079 ft | 490 kts | 103° |
| 2026-04-14 14:27 | 50.87404 | 3.83739 | 39185 ft | 491 kts | 104° |
| 2026-04-14 14:27 | 50.85403 | 3.94023 | 39189 ft | 489 kts | 104° |
| 2026-04-14 14:28 | 50.83391 | 4.04319 | 39196 ft | 487 kts | 104° |
| 2026-04-14 14:28 | 50.81390 | 4.14509 | 39199 ft | 486 kts | 104° |
| 2026-04-14 14:29 | 50.79381 | 4.24684 | 39207 ft | 485 kts | 104° |
| 2026-04-14 14:29 | 50.77368 | 4.34829 | 39209 ft | 484 kts | 104° |
| 2026-04-14 14:30 | 50.75356 | 4.44915 | 39211 ft | 484 kts | 105° |
| 2026-04-14 14:30 | 50.73319 | 4.55075 | 39208 ft | 483 kts | 105° |
| 2026-04-14 14:31 | 50.71314 | 4.65151 | 39207 ft | 482 kts | 104° |
| 2026-04-14 14:31 | 50.69358 | 4.75244 | 39205 ft | 482 kts | 104° |
| 2026-04-14 14:32 | 50.67395 | 4.85378 | 39201 ft | 481 kts | 104° |
| 2026-04-14 14:32 | 50.65418 | 4.95409 | 39205 ft | 481 kts | 105° |
| 2026-04-14 14:33 | 50.63340 | 5.05567 | 39204 ft | 491 kts | 105° |
| 2026-04-14 14:33 | 50.61212 | 5.15838 | 39207 ft | 500 kts | 106° |
| 2026-04-14 14:34 | 50.59070 | 5.26119 | 39826 ft | 483 kts | 106° |
| 2026-04-14 14:34 | 50.58024 | 5.31132 | 39418 ft | 480 kts | 106° |
| 2026-04-14 14:34 | 50.56983 | 5.36120 | 39240 ft | 477 kts | 106° |
| 2026-04-14 14:35 | 50.55956 | 5.41036 | 39216 ft | 477 kts | 106° |
| 2026-04-14 14:35 | 50.53873 | 5.50971 | 39209 ft | 477 kts | 106° |
| 2026-04-14 14:36 | 50.51801 | 5.60804 | 39086 ft | 475 kts | 106° |
| 2026-04-14 14:36 | 50.50803 | 5.65741 | 38855 ft | 473 kts | 105° |
| 2026-04-14 14:36 | 50.49863 | 5.70671 | 38582 ft | 473 kts | 104° |
| 2026-04-14 14:36 | 50.48940 | 5.75648 | 38294 ft | 473 kts | 104° |
| 2026-04-14 14:37 | 50.48026 | 5.80620 | 38023 ft | 474 kts | 104° |
| 2026-04-14 14:37 | 50.47107 | 5.85604 | 37745 ft | 474 kts | 104° |
| 2026-04-14 14:37 | 50.46193 | 5.90522 | 37486 ft | 474 kts | 104° |
| 2026-04-14 14:37 | 50.45260 | 5.95499 | 37214 ft | 475 kts | 104° |
| 2026-04-14 14:38 | 50.44320 | 6.00484 | 36952 ft | 475 kts | 104° |
| 2026-04-14 14:38 | 50.43378 | 6.05454 | 36691 ft | 476 kts | 104° |
| 2026-04-14 14:38 | 50.42430 | 6.10436 | 36432 ft | 476 kts | 103° |
| 2026-04-14 14:38 | 50.41476 | 6.15430 | 36181 ft | 477 kts | 103° |
| 2026-04-14 14:39 | 50.40537 | 6.20330 | 35716 ft | 474 kts | 103° |
| 2026-04-14 14:39 | 50.39582 | 6.25309 | 34969 ft | 478 kts | 103° |
| 2026-04-14 14:39 | 50.38614 | 6.30349 | 34158 ft | 481 kts | 102° |
| 2026-04-14 14:39 | 50.37654 | 6.35334 | 33241 ft | 484 kts | 103° |
| 2026-04-14 14:40 | 50.36758 | 6.40427 | 32313 ft | 484 kts | 97° |
| 2026-04-14 14:40 | 50.36235 | 6.45614 | 31452 ft | 482 kts | 93° |
| 2026-04-14 14:40 | 50.35833 | 6.50830 | 30665 ft | 480 kts | 92° |
| 2026-04-14 14:40 | 50.35480 | 6.56039 | 29799 ft | 478 kts | 92° |
| 2026-04-14 14:41 | 50.35156 | 6.61177 | 28776 ft | 479 kts | 92° |
| 2026-04-14 14:41 | 50.34836 | 6.66397 | 27702 ft | 481 kts | 92° |
| 2026-04-14 14:41 | 50.34518 | 6.71571 | 26597 ft | 479 kts | 92° |
| 2026-04-14 14:41 | 50.34195 | 6.76786 | 25154 ft | 477 kts | 93° |
| 2026-04-14 14:42 | 50.33866 | 6.81949 | 24202 ft | 476 kts | 95° |
| 2026-04-14 14:42 | 50.33201 | 6.86938 | 23609 ft | 469 kts | 106° |
| 2026-04-14 14:42 | 50.32010 | 6.91689 | 22797 ft | 467 kts | 112° |
| 2026-04-14 14:42 | 50.30654 | 6.96294 | 22140 ft | 460 kts | 114° |
| 2026-04-14 14:43 | 50.29290 | 7.00811 | 21584 ft | 455 kts | 114° |
| 2026-04-14 14:43 | 50.27954 | 7.05241 | 21030 ft | 452 kts | 114° |
| 2026-04-14 14:43 | 50.26624 | 7.09665 | 20474 ft | 447 kts | 114° |
| 2026-04-14 14:43 | 50.25305 | 7.14054 | 19826 ft | 442 kts | 114° |
| 2026-04-14 14:44 | 50.24021 | 7.18329 | 19100 ft | 436 kts | 114° |
| 2026-04-14 14:44 | 50.22738 | 7.22592 | 18373 ft | 430 kts | 114° |
| 2026-04-14 14:44 | 50.21472 | 7.26799 | 17525 ft | 424 kts | 114° |
| 2026-04-14 14:44 | 50.20229 | 7.30924 | 16718 ft | 419 kts | 114° |
| 2026-04-14 14:45 | 50.18992 | 7.35021 | 15937 ft | 414 kts | 114° |
| 2026-04-14 14:45 | 50.17768 | 7.39068 | 15160 ft | 409 kts | 114° |
| 2026-04-14 14:45 | 50.16553 | 7.43061 | 14409 ft | 403 kts | 114° |
| 2026-04-14 14:45 | 50.15408 | 7.47023 | 13647 ft | 398 kts | 110° |
| 2026-04-14 14:46 | 50.14499 | 7.51073 | 12834 ft | 392 kts | 107° |
| 2026-04-14 14:46 | 50.13697 | 7.55052 | 12033 ft | 387 kts | 106° |
| 2026-04-14 14:46 | 50.12919 | 7.59069 | 11450 ft | 384 kts | 106° |
| 2026-04-14 14:46 | 50.12157 | 7.63060 | 11132 ft | 383 kts | 106° |
| 2026-04-14 14:47 | 50.11400 | 7.67047 | 10636 ft | 380 kts | 107° |
| 2026-04-14 14:47 | 50.10647 | 7.70933 | 10038 ft | 377 kts | 109° |
| 2026-04-14 14:47 | 50.09524 | 7.74570 | 9361 ft | 368 kts | 124° |
| 2026-04-14 14:47 | 50.07921 | 7.77604 | 8706 ft | 355 kts | 132° |
| 2026-04-14 14:48 | 50.06281 | 7.80348 | 8065 ft | 336 kts | 133° |
| 2026-04-14 14:48 | 50.04711 | 7.82912 | 7449 ft | 319 kts | 133° |
| 2026-04-14 14:48 | 50.03211 | 7.85319 | 6842 ft | 306 kts | 133° |
| 2026-04-14 14:48 | 50.01741 | 7.87633 | 6215 ft | 296 kts | 133° |
| 2026-04-14 14:49 | 50.00310 | 7.89865 | 5550 ft | 287 kts | 133° |
| 2026-04-14 14:49 | 49.98918 | 7.92024 | 5129 ft | 275 kts | 133° |
| 2026-04-14 14:49 | 49.97610 | 7.94044 | 5008 ft | 256 kts | 133° |
| 2026-04-14 14:49 | 49.96581 | 7.96143 | 4995 ft | 235 kts | 112° |
| 2026-04-14 14:50 | 49.96038 | 7.98440 | 4995 ft | 218 kts | 104° |
| 2026-04-14 14:50 | 49.95621 | 8.00643 | 4994 ft | 210 kts | 103° |
| 2026-04-14 14:50 | 49.95220 | 8.02827 | 4994 ft | 210 kts | 103° |
| 2026-04-14 14:50 | 49.94823 | 8.05013 | 4998 ft | 210 kts | 103° |
| 2026-04-14 14:51 | 49.94424 | 8.07208 | 4994 ft | 210 kts | 103° |
| 2026-04-14 14:51 | 49.94287 | 8.09382 | 5014 ft | 196 kts | 83° |
| 2026-04-14 14:51 | 49.94533 | 8.11354 | 5013 ft | 177 kts | 70° |
| 2026-04-14 14:51 | 49.94922 | 8.13078 | 4995 ft | 160 kts | 67° |
| 2026-04-14 14:52 | 49.95291 | 8.14599 | 4983 ft | 145 kts | 66° |
| 2026-04-14 14:52 | 49.95644 | 8.16062 | 4953 ft | 143 kts | 66° |
| 2026-04-14 14:52 | 49.95991 | 8.17521 | 4785 ft | 144 kts | 66° |
| 2026-04-14 14:52 | 49.96339 | 8.18975 | 4565 ft | 143 kts | 66° |
| 2026-04-14 14:53 | 49.96683 | 8.20407 | 4343 ft | 142 kts | 67° |
| 2026-04-14 14:53 | 49.97015 | 8.21799 | 4171 ft | 134 kts | 66° |
| 2026-04-14 14:53 | 49.97335 | 8.23126 | 3959 ft | 131 kts | 66° |
| 2026-04-14 14:53 | 49.97649 | 8.24434 | 3761 ft | 128 kts | 66° |
| 2026-04-14 14:54 | 49.97962 | 8.25737 | 3589 ft | 129 kts | 66° |
| 2026-04-14 14:54 | 49.98278 | 8.27051 | 3413 ft | 129 kts | 66° |
| 2026-04-14 14:54 | 49.98592 | 8.28362 | 3245 ft | 129 kts | 67° |
| 2026-04-14 14:54 | 49.98901 | 8.29654 | 3066 ft | 129 kts | 67° |
| 2026-04-14 14:55 | 49.99215 | 8.30960 | 2895 ft | 129 kts | 66° |
| 2026-04-14 14:55 | 49.99528 | 8.32266 | 2720 ft | 128 kts | 66° |
| 2026-04-14 14:55 | 49.99836 | 8.33551 | 2546 ft | 128 kts | 67° |
| 2026-04-14 14:55 | 50.00147 | 8.34851 | 2370 ft | 128 kts | 66° |
| 2026-04-14 14:56 | 50.00764 | 8.37429 | 2023 ft | 127 kts | 66° |
| 2026-04-14 14:56 | 50.01075 | 8.38722 | 1846 ft | 127 kts | 66° |
| 2026-04-14 14:56 | 50.01381 | 8.40005 | 1676 ft | 126 kts | 66° |
| 2026-04-14 14:57 | 50.01686 | 8.41273 | 1487 ft | 126 kts | 66° |
| 2026-04-14 14:57 | 50.01993 | 8.42553 | 1313 ft | 126 kts | 67° |
| 2026-04-14 14:57 | 50.02299 | 8.43832 | 1142 ft | 125 kts | 68° |
| 2026-04-14 14:57 | 50.02600 | 8.45089 | 990 ft | 124 kts | 67° |
| 2026-04-14 14:58 | 50.02904 | 8.46357 | 810 ft | 125 kts | 67° |
| 2026-04-14 14:58 | 50.03202 | 8.47604 | 648 ft | 125 kts | 68° |
| 2026-04-14 14:58 | 50.03505 | 8.48869 | 468 ft | 123 kts | 69° |
| 2026-04-14 14:58 | 50.03800 | 8.50101 | 321 ft | 118 kts | 69° |
| 2026-04-14 14:59 | 50.04032 | 8.51070 | 328 ft | 69 kts | 69° |
| 2026-04-14 14:59 | 50.04109 | 8.51522 | 333 ft | 24 kts | 89° |
| 2026-04-14 14:59 | 50.04103 | 8.51726 | 336 ft | 0 kts | 101° |
| 2026-04-14 15:00 | 50.04091 | 8.51823 | 339 ft | 15 kts | 100° |
| 2026-04-14 15:00 | 50.04074 | 8.51973 | 344 ft | 14 kts | 99° |
| 2026-04-14 15:00 | 50.04074 | 8.52125 | 346 ft | 18 kts | 77° |
| 2026-04-14 15:00 | 50.04108 | 8.52280 | 349 ft | 21 kts | 71° |
| 2026-04-14 15:01 | 50.04169 | 8.52550 | 359 ft | 32 kts | 69° |
| 2026-04-14 15:01 | 50.04257 | 8.52912 | 359 ft | 40 kts | 60° |
| 2026-04-14 15:01 | 50.04352 | 8.53316 | 369 ft | 31 kts | 71° |
| 2026-04-14 15:01 | 50.04401 | 8.53615 | 378 ft | 33 kts | 84° |
| 2026-04-14 15:02 | 50.04427 | 8.54021 | 378 ft | 43 kts | 83° |
| 2026-04-14 15:02 | 50.04454 | 8.54390 | 375 ft | 0 kts | 83° |
| 2026-04-14 15:02 | 50.04454 | 8.54397 | 375 ft | 7 kts | 89° |
| 2026-04-14 15:02 | 50.04425 | 8.54601 | 371 ft | 0 kts | 118° |
| 2026-04-14 15:03 | 50.04399 | 8.54665 | 367 ft | 22 kts | 124° |
| 2026-04-14 15:03 | 50.04230 | 8.54820 | 356 ft | 26 kts | 160° |
| 2026-04-14 15:03 | 50.04154 | 8.54862 | 356 ft | 0 kts | 160° |
| 2026-04-14 15:03 | 50.04151 | 8.54864 | 360 ft | 1 kts | 160° |
| 2026-04-14 15:04 | 50.04094 | 8.54894 | 357 ft | 16 kts | 160° |
| 2026-04-14 15:04 | 50.04017 | 8.54986 | 361 ft | 9 kts | 93° |
| 2026-04-14 15:04 | 50.04046 | 8.55130 | 359 ft | 19 kts | 69° |
| 2026-04-14 15:04 | 50.04104 | 8.55375 | 362 ft | 30 kts | 70° |
| 2026-04-14 15:05 | 50.04187 | 8.55724 | 363 ft | 38 kts | 70° |
| 2026-04-14 15:05 | 50.04287 | 8.56147 | 361 ft | 46 kts | 69° |
| 2026-04-14 15:05 | 50.04408 | 8.56644 | 366 ft | 52 kts | 68° |
| 2026-04-14 15:05 | 50.04541 | 8.57202 | 365 ft | 58 kts | 70° |
| 2026-04-14 15:06 | 50.04656 | 8.57681 | 362 ft | 24 kts | 70° |
| 2026-04-14 15:06 | 50.04701 | 8.57903 | 363 ft | 13 kts | 91° |
| 2026-04-14 15:06 | 50.04649 | 8.57995 | 361 ft | 10 kts | 159° |
| 2026-04-14 15:06 | 50.04591 | 8.58030 | 365 ft | 7 kts | 152° |
| 2026-04-14 15:07 | 50.04572 | 8.58138 | 372 ft | 13 kts | 75° |
| 2026-04-14 15:07 | 50.04598 | 8.58255 | 373 ft | 10 kts | 69° |
| 2026-04-14 15:07 | 50.04630 | 8.58391 | 375 ft | 15 kts | 70° |
| 2026-04-14 15:07 | 50.04676 | 8.58576 | 375 ft | 22 kts | 69° |
| 2026-04-14 15:08 | 50.04742 | 8.58830 | 372 ft | 29 kts | 69° |
| 2026-04-14 15:08 | 50.04815 | 8.59124 | 372 ft | 14 kts | 53° |
| 2026-04-14 15:08 | 50.04900 | 8.59110 | 374 ft | 11 kts | 340° |
| 2026-04-14 15:08 | 50.04904 | 8.59108 | 368 ft | 0 kts | 340° |